Language selection

Weather shortcuts

Juan de Fuca Strait - west entrance: Past 24 Hour Conditions

 

La Perouse Bank - 46206

07:00 PM PDT 14 April 2024Buoy position: 48.83N 126.0W
Disclaimer

This table is a summary of hourly weather conditions for the past 24 hours.
Please note that these observations might not always be representative of weather conditions over their associated marine area.

Date / Time
(PDT)
Wind(knots) Wave height(m) Wave period(s) Pressure(kPa) Air tempC) Water tempC)
14 April 2024
19:00 NW 26 gusts 31 2.71 7.4 101.8 9 10
18:00 NW 24 gusts 29 2.51 7.1 101.9 9 10
17:00 NW 26 gusts 32 2.68 6.9 101.8 9 10
16:00 WNW 23 gusts 28 2.72 7.1 101.9 9 10
15:00 NW 21 gusts 26 2.53 7.1 101.9 9 10
14:00 WNW 21 gusts 27 2.38 7.1 101.9 9 10
13:00 NW 19 gusts 24 2.25 7.4 101.8 10 10
12:00 NW 20 gusts 25 2.10 6.7 101.8 9 10
11:00 NW 16 gusts 20 2.18 8.0 101.8 9 10
10:00 WNW 16 gusts 19 1.93 8.0 101.7 9 10
9:00 NW 15 gusts 18 2.06 6.9 101.7 10 10
8:00 NW 16 gusts 20 1.90 7.7 101.6 10 10
7:00 NW 16 gusts 21 2.11 6.9 101.6 9 10
6:00 NW 15 gusts 18 2.00 6.7 101.5 10 10
5:00 NW 16 gusts 21 2.18 7.7 101.5 10 10
4:00 NW 15 gusts 18 2.26 10.0 101.5 10 10
3:00 NW 16 gusts 20 2.15 7.7 101.5 10 10
2:00 NW 18 gusts 22 2.16 7.1 101.5 10 10
1:00 NW 17 gusts 20 2.14 8.0 101.5 10 10
0:00 NW 19 gusts 23 2.06 6.9 101.4 10 10
13 April 2024
23:00 NW 17 gusts 21 1.97 7.1 101.4 10 10
22:00 NW 15 gusts 18 1.74 8.7 101.5 10 10
21:00 NW 14 gusts 17 1.77 9.5 101.5 10 10
20:00 NW 15 gusts 17 1.65 9.5 101.5 10 10
19:00 NW 14 gusts 17 1.49 9.5 101.4 11 10

Zoom-in to make a selection

Map of Pacific - Georgia Basin marine weather areas Sentry Shoal - 46131 Halibut Bank - 46146 La Perouse Bank - 46206 Georgia Strait - 46303 English Bay – 46304 Discovery Island Esquimalt Harbour Kelp Reefs Malahat Race Rocks Lightstation Saturna Island Sheringham Point University of Victoria Victoria Gonzales Victoria Int'l Airport Ballenas Islands Campbell River Airport Comox Airport Entrance Island Fanny Island Nanaimo Airport Sisters Islets Estevan Point Port Alberni Tofino Airport Grief Point Howe Sound - Pam Rocks Powell River Airport Sechelt Squamish Airport Point Atkinson Sand Heads Lightstation Tsawwassen Ferry Terminal Vancouver Int'l Airport Vancouver Harbour West Vancouver
Legend:
buoy Buoy
land station Land Station

Pacific - Georgia Basin Area

Another Region

Date modified: